createdAt,value
2023-04-04T00:01:58.326Z,37.54
2023-04-04T00:05:01.605Z,37.90
2023-04-04T00:08:06.788Z,37.66
2023-04-04T00:11:10.023Z,37.47
2023-04-04T00:14:13.627Z,37.57
2023-04-04T00:17:16.905Z,38.02
2023-04-04T00:20:20.180Z,37.92
2023-04-04T00:23:24.800Z,37.95
2023-04-04T00:26:28.253Z,37.89
2023-04-04T00:29:31.766Z,37.86
2023-04-04T00:32:35.070Z,37.69
2023-04-04T00:35:38.568Z,37.73
2023-04-04T00:38:43.141Z,37.72
2023-04-04T00:41:46.225Z,37.88
2023-04-04T00:44:49.506Z,37.82
2023-04-04T00:47:53.522Z,37.52
2023-04-04T00:50:57.082Z,37.60
2023-04-04T00:54:02.100Z,37.58
2023-04-04T00:57:08.255Z,37.88
2023-04-04T01:00:13.444Z,37.68
2023-04-04T01:03:17.058Z,37.65
2023-04-04T01:06:21.408Z,37.68
2023-04-04T01:09:26.161Z,37.84
2023-04-04T01:12:30.150Z,37.90
2023-04-04T01:15:33.554Z,37.59
2023-04-04T01:18:39.776Z,38.01
2023-04-04T01:21:44.322Z,38.01
2023-04-04T01:24:51.257Z,37.60
2023-04-04T01:27:56.499Z,37.82
2023-04-04T01:31:02.903Z,37.71
2023-04-04T01:34:13.416Z,37.74
2023-04-04T01:37:23.536Z,37.91
2023-04-04T01:40:29.958Z,37.90
2023-04-04T01:43:35.085Z,37.58
2023-04-04T01:46:38.539Z,37.83
2023-04-04T01:49:42.319Z,37.70
2023-04-04T01:52:45.514Z,37.72
2023-04-04T01:55:48.699Z,37.73
2023-04-04T01:58:53.963Z,37.47
2023-04-04T02:01:57.765Z,38.08
2023-04-04T02:05:01.990Z,37.89
2023-04-04T02:08:05.769Z,37.80
2023-04-04T02:11:08.975Z,37.80
2023-04-04T02:14:13.674Z,37.71
2023-04-04T02:17:16.911Z,37.79
2023-04-04T02:20:20.354Z,37.72
2023-04-04T02:23:23.568Z,37.68
2023-04-04T02:26:26.778Z,37.54
2023-04-04T02:29:31.509Z,37.43
2023-04-04T02:32:34.707Z,37.49
2023-04-04T02:35:38.075Z,37.76
2023-04-04T02:38:41.544Z,37.49
2023-04-04T02:41:44.799Z,37.32
2023-04-04T02:44:49.436Z,37.50
2023-04-04T02:47:53.479Z,37.53
2023-04-04T02:50:56.862Z,37.49
2023-04-04T02:54:00.263Z,37.49
2023-04-04T02:57:04.765Z,37.68
2023-04-04T03:00:11.631Z,37.50
2023-04-04T03:03:15.029Z,37.42
2023-04-04T03:06:18.661Z,37.51
2023-04-04T03:09:22.081Z,37.62
2023-04-04T03:12:25.355Z,37.78
2023-04-04T03:15:30.687Z,37.71
2023-04-04T03:18:34.813Z,38.26
2023-04-04T03:21:38.042Z,38.13
2023-04-04T03:24:41.208Z,38.04
2023-04-04T03:27:44.581Z,38.16
2023-04-04T03:30:49.258Z,38.15
2023-04-04T03:33:52.565Z,38.31
2023-04-04T03:36:57.654Z,38.61
2023-04-04T03:40:01.110Z,38.63
2023-04-04T03:43:04.343Z,38.75
2023-04-04T03:46:09.062Z,38.65
2023-04-04T03:49:17.747Z,38.67
2023-04-04T03:52:20.927Z,39.01
2023-04-04T03:55:27.704Z,39.35
2023-04-04T03:58:34.211Z,38.94
2023-04-04T04:01:38.882Z,39.16
2023-04-04T04:04:42.122Z,38.99
2023-04-04T04:07:45.847Z,40.20
2023-04-04T04:10:49.008Z,40.27
2023-04-04T04:13:52.514Z,40.00
2023-04-04T04:16:57.205Z,39.83
2023-04-04T04:20:00.556Z,40.06
2023-04-04T04:23:03.807Z,39.70
2023-04-04T04:26:07.159Z,39.53
2023-04-04T04:29:10.390Z,39.34
2023-04-04T04:32:18.597Z,39.46
2023-04-04T04:35:21.907Z,39.42
2023-04-04T04:38:25.214Z,39.59
2023-04-04T04:41:29.374Z,39.71
2023-04-04T04:44:32.660Z,39.61
2023-04-04T04:47:38.312Z,39.43
2023-04-04T04:50:41.910Z,39.52
2023-04-04T04:53:45.667Z,39.83
2023-04-04T04:56:48.917Z,39.36
2023-04-04T04:59:52.432Z,39.30
2023-04-04T05:02:57.975Z,39.42
2023-04-04T05:06:01.266Z,39.00
2023-04-04T05:09:04.634Z,39.35
2023-04-04T05:12:08.168Z,39.48
2023-04-04T05:15:11.623Z,39.42
2023-04-04T05:18:16.290Z,39.30
2023-04-04T05:21:19.860Z,39.32
2023-04-04T05:24:23.643Z,39.60
2023-04-04T05:27:27.090Z,39.39
2023-04-04T05:30:30.357Z,39.37
2023-04-04T05:33:35.094Z,39.36
2023-04-04T05:36:38.654Z,39.49
2023-04-04T05:39:41.871Z,39.32
2023-04-04T05:42:45.090Z,39.47
2023-04-04T05:45:48.363Z,39.58
2023-04-04T05:48:53.274Z,39.54
2023-04-04T05:51:57.633Z,39.72
2023-04-04T05:55:00.985Z,39.34
2023-04-04T05:58:04.212Z,39.52
2023-04-04T06:01:08.964Z,39.66
2023-04-04T06:04:13.904Z,39.78
2023-04-04T06:07:17.446Z,39.67
2023-04-04T06:10:21.261Z,39.85
2023-04-04T06:13:24.904Z,39.79
2023-04-04T06:16:28.256Z,39.62
2023-04-04T06:19:32.932Z,39.83
2023-04-04T06:22:36.268Z,39.86
2023-04-04T06:25:39.727Z,39.74
2023-04-04T06:28:49.622Z,39.89
2023-04-04T06:31:53.028Z,40.00
2023-04-04T06:34:57.725Z,39.79
2023-04-04T06:38:01.103Z,41.48
2023-04-04T06:41:04.351Z,39.79
2023-04-04T06:44:07.744Z,39.39
2023-04-04T06:47:11.645Z,39.43
2023-04-04T06:50:16.778Z,39.53
2023-04-04T06:53:20.224Z,39.14
2023-04-04T06:56:24.135Z,39.39
2023-04-04T06:59:28.040Z,39.42
2023-04-04T07:02:31.582Z,39.33
2023-04-04T07:05:39.675Z,39.68
2023-04-04T07:08:43.046Z,39.58
2023-04-04T07:11:46.334Z,39.46
2023-04-04T07:14:49.657Z,39.28
2023-04-04T07:17:53.112Z,39.08
2023-04-04T07:20:58.597Z,39.16
2023-04-04T07:24:02.629Z,39.03
2023-04-04T07:27:06.010Z,38.88
2023-04-04T07:30:10.238Z,38.76
2023-04-04T07:33:13.555Z,38.52
2023-04-04T07:36:18.295Z,38.47
2023-04-04T07:39:21.795Z,38.39
2023-04-04T07:42:25.457Z,38.26
2023-04-04T07:45:28.749Z,37.96
2023-04-04T07:48:32.040Z,38.01
2023-04-04T07:51:37.103Z,38.00
2023-04-04T07:54:40.854Z,37.85
2023-04-04T07:57:44.134Z,38.02
2023-04-04T08:00:47.398Z,37.80
2023-04-04T08:03:53.719Z,39.71
2023-04-04T08:06:58.550Z,38.01
2023-04-04T08:10:01.831Z,37.91
2023-04-04T08:13:06.056Z,37.60
2023-04-04T08:16:10.451Z,37.53
2023-04-04T08:19:13.948Z,37.48
2023-04-04T08:22:18.687Z,37.43
2023-04-04T08:25:21.945Z,37.38
2023-04-04T08:28:25.240Z,37.30
2023-04-04T08:31:29.993Z,37.18
2023-04-04T08:34:33.447Z,36.94
2023-04-04T08:37:38.515Z,36.96
2023-04-04T08:40:42.304Z,36.92
2023-04-04T08:43:47.154Z,37.03
2023-04-04T08:46:52.131Z,36.86
2023-04-04T08:49:56.813Z,36.72
2023-04-04T08:53:04.841Z,36.73
2023-04-04T08:56:08.263Z,36.70
2023-04-04T08:59:15.831Z,36.67
2023-04-04T09:02:28.275Z,36.60
2023-04-04T09:05:32.353Z,36.51
2023-04-04T09:08:37.695Z,36.54
2023-04-04T09:11:41.813Z,36.47
2023-04-04T09:14:49.099Z,36.51
2023-04-04T09:17:52.465Z,36.29
2023-04-04T09:20:55.943Z,36.45
2023-04-04T09:24:03.741Z,36.25
2023-04-04T09:27:07.213Z,36.32
2023-04-04T09:30:11.658Z,36.16
2023-04-04T09:33:17.024Z,36.10
2023-04-04T09:36:20.757Z,35.94
2023-04-04T09:39:26.106Z,36.08
2023-04-04T09:42:30.062Z,36.09
2023-04-04T09:45:34.474Z,35.94
2023-04-04T09:48:37.882Z,35.90
2023-04-04T09:51:42.702Z,35.91
2023-04-04T09:54:56.903Z,35.88
2023-04-04T09:58:02.671Z,35.89
2023-04-04T10:01:10.884Z,35.77
2023-04-04T10:04:16.262Z,35.50
2023-04-04T10:07:20.176Z,35.69
2023-04-04T10:10:26.937Z,35.68
2023-04-04T10:13:31.627Z,35.64
2023-04-04T10:16:38.152Z,35.37
2023-04-04T10:19:42.413Z,35.43
2023-04-04T10:22:47.393Z,35.45
2023-04-04T10:25:52.637Z,35.13
2023-04-04T10:28:56.399Z,35.55
2023-04-04T10:32:03.793Z,35.43
2023-04-04T10:35:11.030Z,35.43
2023-04-04T10:38:15.132Z,35.42
2023-04-04T10:41:21.770Z,35.24
2023-04-04T10:44:30.678Z,35.23
2023-04-04T10:47:35.587Z,35.14
2023-04-04T10:50:39.847Z,35.28
2023-04-04T10:53:43.932Z,35.02
2023-04-04T10:56:49.560Z,35.02
2023-04-04T11:00:00.035Z,34.97
2023-04-04T11:03:04.884Z,35.04
2023-04-04T11:06:16.304Z,34.76
2023-04-04T11:09:53.747Z,35.05
2023-04-04T11:13:12.314Z,34.86
2023-04-04T11:16:21.577Z,34.97
2023-04-04T11:19:25.846Z,34.75
2023-04-04T11:22:29.111Z,34.54
2023-04-04T11:25:37.672Z,34.65
2023-04-04T11:28:48.689Z,34.66
2023-04-04T11:31:52.531Z,34.67
2023-04-04T11:34:58.850Z,35.02
2023-04-04T11:38:03.951Z,34.53
2023-04-04T11:41:10.549Z,34.32
2023-04-04T11:44:16.760Z,34.29
2023-04-04T11:47:22.287Z,33.65
2023-04-04T11:50:25.935Z,33.64
2023-04-04T11:53:33.309Z,33.33
2023-04-04T11:56:38.421Z,33.66
2023-04-04T11:59:44.716Z,33.40
2023-04-04T12:02:48.125Z,33.79
2023-04-04T12:05:51.478Z,33.86
2023-04-04T12:08:55.392Z,34.12
2023-04-04T12:11:59.059Z,33.12
2023-04-04T12:15:14.859Z,32.96
2023-04-04T12:18:24.383Z,33.97
2023-04-04T12:21:27.803Z,34.02
2023-04-04T12:24:31.259Z,34.10
2023-04-04T12:27:35.435Z,34.11
2023-04-04T12:30:40.972Z,34.21
2023-04-04T12:33:44.497Z,34.26
2023-04-04T12:36:49.325Z,34.26
2023-04-04T12:39:52.591Z,34.25
2023-04-04T12:42:56.871Z,34.11
2023-04-04T12:46:01.628Z,34.20
2023-04-04T12:49:06.702Z,33.89
2023-04-04T12:52:20.775Z,34.10
2023-04-04T12:55:24.969Z,33.84
2023-04-04T12:58:28.660Z,34.16
2023-04-04T13:01:33.933Z,33.95
2023-04-04T13:04:38.105Z,33.79
2023-04-04T13:11:07.907Z,33.88
2023-04-04T13:14:13.224Z,33.89
2023-04-04T13:17:19.844Z,33.75
2023-04-04T13:20:24.803Z,33.88
2023-04-04T13:23:28.173Z,33.58
2023-04-04T13:26:31.462Z,33.80
2023-04-04T13:29:34.741Z,33.78
2023-04-04T13:32:39.589Z,33.61
2023-04-04T13:35:44.757Z,33.57
2023-04-04T13:38:48.042Z,33.75
2023-04-04T13:41:51.578Z,33.59
2023-04-04T13:44:54.790Z,33.53
2023-04-04T13:47:59.484Z,33.44
2023-04-04T13:51:02.988Z,33.50
2023-04-04T13:54:06.684Z,33.59
2023-04-04T13:57:10.120Z,33.50
2023-04-04T14:00:14.563Z,33.54
2023-04-04T14:03:19.279Z,33.62
2023-04-04T14:06:22.752Z,33.42
2023-04-04T14:09:25.944Z,33.28
2023-04-04T14:12:29.298Z,33.23
2023-04-04T14:15:33.148Z,33.47
2023-04-04T14:18:37.819Z,33.13
2023-04-04T14:21:41.143Z,33.37
2023-04-04T14:24:44.461Z,33.30
2023-04-04T14:27:47.858Z,33.46
2023-04-04T14:30:51.901Z,33.28
2023-04-04T14:33:59.839Z,33.18
2023-04-04T14:37:04.019Z,33.18
2023-04-04T14:40:08.536Z,33.29
2023-04-04T14:43:11.881Z,33.01
2023-04-04T14:46:15.152Z,33.17
2023-04-04T14:49:19.909Z,33.16
2023-04-04T14:52:23.228Z,33.13
2023-04-04T14:55:27.199Z,32.67
2023-04-04T14:58:30.687Z,33.00
2023-04-04T15:01:34.010Z,33.03
2023-04-04T15:04:39.304Z,32.91
2023-04-04T15:07:42.656Z,32.82
2023-04-04T15:10:46.061Z,33.08
2023-04-04T15:13:49.358Z,33.11
2023-04-04T15:16:53.839Z,33.11
2023-04-04T15:19:59.903Z,32.69
2023-04-04T15:23:03.683Z,32.74
2023-04-04T15:26:07.520Z,32.53
2023-04-04T15:29:11.058Z,32.39
2023-04-04T15:32:14.587Z,32.17
2023-04-04T15:35:21.842Z,32.20
2023-04-04T15:38:25.378Z,32.17
2023-04-04T15:41:29.285Z,32.34
2023-04-04T15:44:32.711Z,32.33
2023-04-04T15:47:36.268Z,32.18
2023-04-04T15:50:41.291Z,32.39
2023-04-04T15:53:44.796Z,32.48
2023-04-04T15:56:48.086Z,32.46
2023-04-04T15:59:51.640Z,32.31
2023-04-04T16:02:57.898Z,32.44
2023-04-04T16:06:02.690Z,32.41
2023-04-04T16:09:06.263Z,32.33
2023-04-04T16:12:09.562Z,32.40
2023-04-04T16:15:14.090Z,32.42
2023-04-04T16:18:17.783Z,32.84
2023-04-04T16:21:22.568Z,32.41
2023-04-04T16:24:25.981Z,32.99
2023-04-04T16:27:29.392Z,33.01
2023-04-04T16:30:32.934Z,33.08
2023-04-04T16:33:36.213Z,33.24
2023-04-04T16:36:41.149Z,33.23
2023-04-04T16:39:46.617Z,33.81
2023-04-04T16:42:50.014Z,33.67
2023-04-04T16:45:53.346Z,33.24
2023-04-04T16:48:56.777Z,33.60
2023-04-04T16:52:01.786Z,33.32
2023-04-04T16:55:05.590Z,33.65
2023-04-04T16:58:08.986Z,33.88
2023-04-04T17:01:15.295Z,33.99
2023-04-04T17:04:18.686Z,33.94
2023-04-04T17:07:23.604Z,33.80
2023-04-04T17:10:27.335Z,33.86
2023-04-04T17:13:31.686Z,33.83
2023-04-04T17:16:35.283Z,33.79
2023-04-04T17:19:39.002Z,33.60
2023-04-04T17:22:44.094Z,33.58
2023-04-04T17:25:47.477Z,33.37
2023-04-04T17:28:51.088Z,33.56
2023-04-04T17:31:55.843Z,33.50
2023-04-04T17:35:00.464Z,33.88
2023-04-04T17:38:05.403Z,33.39
2023-04-04T17:41:09.021Z,33.82
2023-04-04T17:44:12.532Z,34.32
2023-04-04T17:47:16.509Z,34.50
2023-04-04T17:50:20.057Z,34.45
2023-04-04T17:53:25.412Z,34.68
2023-04-04T17:56:29.162Z,34.63
2023-04-04T17:59:32.534Z,34.35
2023-04-04T18:02:36.619Z,34.12
2023-04-04T18:05:42.745Z,34.09
2023-04-04T18:08:48.607Z,34.61
2023-04-04T18:11:52.380Z,34.32
2023-04-04T18:14:55.879Z,34.23
2023-04-04T18:17:59.259Z,34.44
2023-04-04T18:21:03.368Z,34.81
2023-04-04T18:24:12.013Z,34.84
2023-04-04T18:27:17.412Z,34.92
2023-04-04T18:30:21.826Z,34.31
2023-04-04T18:33:26.836Z,34.57
2023-04-04T18:36:32.855Z,34.52
2023-04-04T18:39:38.013Z,34.74
2023-04-04T18:42:54.637Z,34.66
2023-04-04T18:46:03.460Z,34.09
2023-04-04T18:49:12.706Z,34.45
2023-04-04T18:52:18.453Z,34.42
2023-04-04T18:55:41.490Z,34.17
2023-04-04T18:58:47.256Z,34.06
2023-04-04T19:01:54.218Z,34.54
2023-04-04T19:04:59.893Z,33.77
2023-04-04T19:08:04.614Z,32.73
2023-04-04T19:11:10.163Z,32.46
2023-04-04T19:14:19.762Z,33.15
2023-04-04T19:17:23.204Z,33.32
2023-04-04T19:20:26.638Z,33.67
2023-04-04T19:23:30.013Z,34.07
2023-04-04T19:26:34.909Z,33.60
2023-04-04T19:29:38.364Z,34.18
2023-04-04T19:32:41.892Z,33.74
2023-04-04T19:35:52.002Z,34.31
2023-04-04T19:38:55.914Z,33.99
2023-04-04T19:42:01.655Z,33.27
2023-04-04T19:45:14.264Z,33.56
2023-04-04T19:48:41.077Z,33.63
2023-04-04T19:51:51.766Z,33.39
2023-04-04T19:54:55.109Z,33.29
2023-04-04T19:58:00.004Z,33.06
2023-04-04T20:01:03.752Z,32.65
2023-04-04T20:04:09.764Z,33.19
2023-04-04T20:07:13.809Z,33.19
2023-04-04T20:10:37.679Z,32.93
2023-04-04T20:13:43.217Z,32.56
2023-04-04T20:16:46.684Z,32.58
2023-04-04T20:19:50.290Z,32.77
2023-04-04T20:22:53.830Z,32.77
2023-04-04T20:26:05.781Z,32.49
2023-04-04T20:29:13.098Z,32.39
2023-04-04T20:32:17.419Z,32.62
2023-04-04T20:35:28.091Z,32.72
2023-04-04T20:38:31.821Z,32.66
2023-04-04T20:41:35.568Z,32.40
2023-04-04T20:44:41.561Z,32.22
2023-04-04T20:47:47.044Z,31.99
2023-04-04T20:50:50.603Z,32.33
2023-04-04T20:53:55.391Z,32.01
2023-04-04T20:56:58.963Z,32.12
2023-04-04T21:00:04.884Z,31.90
2023-04-04T21:03:11.973Z,31.98
2023-04-04T21:06:17.305Z,31.79
2023-04-04T21:09:21.128Z,31.41
2023-04-04T21:12:24.703Z,31.75
2023-04-04T21:15:33.829Z,31.81
2023-04-04T21:18:38.160Z,31.63
2023-04-04T21:21:42.695Z,31.43
2023-04-04T21:24:46.210Z,31.50
2023-04-04T21:27:54.695Z,31.79
2023-04-04T21:30:59.840Z,31.55
2023-04-04T21:34:11.967Z,31.44
2023-04-04T21:37:17.526Z,31.85
2023-04-04T21:40:20.992Z,31.45
2023-04-04T21:43:24.264Z,31.86
2023-04-04T21:46:31.297Z,31.67
2023-04-04T21:49:34.959Z,31.50
2023-04-04T21:52:38.368Z,31.35
2023-04-04T21:55:41.910Z,31.46
2023-04-04T21:58:45.906Z,31.26
2023-04-04T22:01:52.111Z,31.62
2023-04-04T22:04:57.400Z,31.16
2023-04-04T22:08:00.973Z,31.08
2023-04-04T22:11:04.601Z,31.53
2023-04-04T22:14:08.230Z,31.28
2023-04-04T22:17:23.034Z,31.07
2023-04-04T22:20:26.546Z,31.22
2023-04-04T22:23:35.843Z,31.69
2023-04-04T22:26:42.003Z,31.19
2023-04-04T22:29:45.623Z,31.24
2023-04-04T22:32:50.434Z,31.00
2023-04-04T22:35:54.821Z,31.49
2023-04-04T22:38:58.685Z,31.03
2023-04-04T22:42:02.176Z,31.20
2023-04-04T22:45:06.201Z,31.19
2023-04-04T22:48:11.216Z,30.78
2023-04-04T22:51:15.902Z,31.10
2023-04-04T22:54:19.373Z,31.17
2023-04-04T22:57:23.103Z,31.02
2023-04-04T23:00:26.645Z,30.89
2023-04-04T23:03:32.028Z,31.03
2023-04-04T23:06:36.074Z,30.73
2023-04-04T23:09:39.507Z,31.00
2023-04-04T23:12:43.172Z,30.81
2023-04-04T23:15:46.617Z,30.97
2023-04-04T23:18:51.722Z,31.13
2023-04-04T23:21:55.227Z,31.18
2023-04-04T23:24:58.600Z,30.76
2023-04-04T23:28:01.981Z,30.58
2023-04-04T23:31:05.344Z,31.06
2023-04-04T23:34:10.247Z,30.50
2023-04-04T23:37:13.609Z,30.92
2023-04-04T23:40:17.274Z,30.46
2023-04-04T23:43:21.081Z,30.73
2023-04-04T23:46:24.693Z,30.58
2023-04-04T23:49:29.749Z,31.06
2023-04-04T23:52:33.379Z,31.08
2023-04-04T23:55:37.077Z,30.52
2023-04-04T23:58:40.753Z,30.48
